Time;durP1;ratioP1;P1;durP2;ratioP2;P2;SDS_P1;SDS_P2;PMS_P1;PMS_P2;Temp;Humidity;BMP_temperature;BMP_pressure;BME280_temperature;BME280_humidity;BME280_pressure;Samples;Min_cycle;Max_cycle;Signal;HPM_P1;HPM_P2
2024/02/13 00:00:34;;;;;;;9.00;6.90;;;;;;;7.63;88.68;99013.30;102863;1276;137706;-70
2024/02/13 00:03:21;;;;;;;9.90;7.50;;;;;;;7.61;88.64;99022.58;102144;1275;97832;-70
2024/02/13 00:05:48;;;;;;;8.10;6.20;;;;;;;7.54;88.54;99019.90;101902;1271;138472;-71
2024/02/13 00:08:16;;;;;;;8.30;5.90;;;;;;;7.47;88.59;99024.65;102196;1270;97834;-70
2024/02/13 00:10:44;;;;;;;8.20;5.50;;;;;;;7.42;88.79;99022.28;102113;1276;110491;-70
2024/02/13 00:13:11;;;;;;;7.70;5.50;;;;;;;7.37;88.95;99025.40;102012;1276;138547;-70
2024/02/13 00:15:38;;;;;;;8.70;5.70;;;;;;;7.33;88.97;99024.35;102089;1270;98581;-70
2024/02/13 00:18:07;;;;;;;7.10;5.30;;;;;;;7.31;88.94;99025.64;102057;1270;138036;-70
2024/02/13 00:20:34;;;;;;;10.90;5.60;;;;;;;7.28;89.08;99022.30;102098;1270;97752;-70
2024/02/13 00:23:02;;;;;;;11.10;5.70;;;;;;;7.24;89.04;99026.93;102053;1274;138067;-70
2024/02/13 00:25:29;;;;;;;7.60;5.80;;;;;;;7.22;89.21;99034.96;102128;1270;108121;-70
2024/02/13 00:27:56;;;;;;;9.10;5.80;;;;;;;7.19;89.39;99034.77;102265;1274;97945;-69
2024/02/13 00:30:23;;;;;;;11.20;5.20;;;;;;;7.17;89.49;99038.25;102078;1271;138656;-70
2024/02/13 00:32:50;;;;;;;8.20;5.40;;;;;;;7.17;89.58;99042.94;102092;1273;97967;-70
2024/02/13 00:35:17;;;;;;;6.30;4.90;;;;;;;7.15;89.66;99043.35;102023;1270;138735;-71
2024/02/13 00:37:46;;;;;;;5.90;5.00;;;;;;;7.13;89.74;99040.64;102033;1276;107474;-70
2024/02/13 00:40:13;;;;;;;7.40;5.60;;;;;;;7.17;89.85;99049.49;102164;1270;97850;-71
2024/02/13 00:42:40;;;;;;;8.30;5.50;;;;;;;7.19;89.87;99049.60;101925;1270;137532;-70
2024/02/13 00:45:10;;;;;;;8.00;5.80;;;;;;;7.21;89.74;99038.66;102089;1273;97757;-71
2024/02/13 00:47:40;;;;;;;6.80;4.90;;;;;;;7.18;89.79;99049.12;102161;1273;137618;-71
2024/02/13 00:50:09;;;;;;;8.90;5.10;;;;;;;7.15;89.94;99053.20;102090;1273;106406;-71
2024/02/13 00:52:39;;;;;;;8.10;5.50;;;;;;;7.15;90.22;99053.04;102080;1276;97828;-71
2024/02/13 00:55:08;;;;;;;8.50;5.20;;;;;;;7.12;90.36;99061.78;102159;1270;138351;-71
2024/02/13 00:57:35;;;;;;;7.10;5.30;;;;;;;7.10;90.40;99061.86;102176;1271;97955;-69
2024/02/13 01:00:05;;;;;;;7.30;4.60;;;;;;;7.10;90.67;99061.89;102149;1270;138570;-69
2024/02/13 01:02:34;;;;;;;8.10;5.40;;;;;;;7.10;90.93;99063.92;102296;1270;108508;-70
2024/02/13 01:05:01;;;;;;;7.70;5.70;;;;;;;7.10;90.94;99068.61;103423;1270;138223;-71
2024/02/13 01:07:28;;;;;;;9.20;6.00;;;;;;;7.08;90.92;99069.88;102788;1270;107538;-70
2024/02/13 01:09:55;;;;;;;7.30;5.70;;;;;;;7.08;91.05;99067.13;102139;1270;97888;-70
2024/02/13 01:12:22;;;;;;;9.30;6.50;;;;;;;7.06;91.13;99068.42;102011;1276;137987;-70
2024/02/13 01:14:49;;;;;;;8.40;6.30;;;;;;;7.03;91.21;99069.59;102133;1270;107669;-71
2024/02/13 01:17:16;;;;;;;9.20;5.80;;;;;;;7.00;91.32;99080.73;101941;1270;140160;-71
2024/02/13 01:19:48;;;;;;;7.30;5.50;;;;;;;6.99;91.50;99085.94;102173;1276;108087;-71
2024/02/13 01:22:16;;;;;;;8.70;5.70;;;;;;;7.02;91.83;99083.27;102118;1273;97743;-71
2024/02/13 01:24:43;;;;;;;7.40;5.40;;;;;;;7.05;91.98;99086.97;101890;1270;138638;-71
2024/02/13 01:27:10;;;;;;;6.50;5.00;;;;;;;7.06;92.03;99085.02;102137;1273;107707;-71
2024/02/13 01:29:37;;;;;;;8.40;5.80;;;;;;;7.08;91.93;99094.08;102047;1274;138622;-71
2024/02/13 01:32:05;;;;;;;8.30;6.10;;;;;;;7.10;91.95;99088.67;102186;1270;107299;-71
2024/02/13 01:34:32;;;;;;;8.10;6.10;;;;;;;7.11;91.95;99091.55;102122;1270;98518;-71
2024/02/13 01:36:59;;;;;;;8.90;6.00;;;;;;;7.12;91.86;99102.05;102165;1273;138169;-71
2024/02/13 01:39:26;;;;;;;8.30;6.10;;;;;;;7.08;91.62;99097.05;102090;1274;106793;-71
2024/02/13 01:41:56;;;;;;;9.10;5.60;;;;;;;7.07;91.54;99104.17;102058;1270;138494;-71
2024/02/13 01:44:24;;;;;;;9.80;5.60;;;;;;;7.03;91.16;99101.56;102119;1270;107591;-72
2024/02/13 01:46:52;;;;;;;8.90;5.30;;;;;;;6.98;90.72;99108.09;102072;1273;97856;-71
2024/02/13 01:49:20;;;;;;;7.30;4.50;;;;;;;6.96;90.81;99111.61;102073;1270;110245;-72
2024/02/13 01:51:51;;;;;;;7.00;4.50;;;;;;;6.95;90.62;99117.20;102134;1273;108067;-72
2024/02/13 01:54:18;;;;;;;9.40;4.70;;;;;;;6.90;90.69;99127.90;102099;1270;138449;-72
2024/02/13 01:56:47;;;;;;;6.30;4.30;;;;;;;6.90;90.92;99129.64;102255;1271;107745;-72
2024/02/13 01:59:15;;;;;;;6.70;4.40;;;;;;;6.88;90.58;99126.62;102590;1273;141769;-72
2024/02/13 02:01:43;;;;;;;8.00;4.90;;;;;;;6.89;90.59;99126.75;102209;1270;110730;-73
2024/02/13 02:04:11;;;;;;;10.90;4.80;;;;;;;6.88;90.04;99124.89;102136;1276;108240;-72
2024/02/13 02:06:38;;;;;;;6.60;4.30;;;;;;;6.86;89.98;99128.41;102042;1270;138030;-73
2024/02/13 02:09:07;;;;;;;7.00;4.80;;;;;;;6.84;89.90;99131.25;102025;1276;107376;-71
2024/02/13 02:11:35;;;;;;;5.30;3.50;;;;;;;6.81;89.97;99135.15;102142;1270;137871;-73
2024/02/13 02:14:02;;;;;;;5.40;3.60;;;;;;;6.77;89.99;99135.81;102193;1270;111106;-71
2024/02/13 02:16:29;;;;;;;5.20;3.40;;;;;;;6.73;89.94;99140.77;102155;1270;107959;-71
2024/02/13 02:18:56;;;;;;;4.70;3.10;;;;;;;6.71;90.18;99141.89;102311;1270;139000;-72
2024/02/13 02:21:23;;;;;;;7.70;3.30;;;;;;;6.72;90.35;99147.92;102176;1270;107348;-72
2024/02/13 02:23:50;;;;;;;7.10;3.90;;;;;;;6.70;90.38;99151.08;102052;1270;138907;-72
2024/02/13 02:26:17;;;;;;;6.70;4.00;;;;;;;6.70;90.48;99148.51;102179;1270;110514;-71
2024/02/13 02:28:45;;;;;;;6.70;4.00;;;;;;;6.69;90.46;99148.70;102137;1270;106357;-72
2024/02/13 02:31:14;;;;;;;5.60;3.60;;;;;;;6.62;90.16;99146.31;102069;1270;137503;-72
2024/02/13 02:33:42;;;;;;;3.80;3.00;;;;;;;6.57;89.86;99145.81;102153;1270;107410;-72
2024/02/13 02:36:11;;;;;;;4.40;2.90;;;;;;;6.54;89.75;99150.92;102077;1270;139500;-72
2024/02/13 02:38:39;;;;;;;5.50;2.90;;;;;;;6.55;89.81;99156.91;102161;1270;110413;-73
2024/02/13 02:41:06;;;;;;;5.60;2.40;;;;;;;6.55;89.29;99152.27;102051;1270;138802;-73
2024/02/13 02:43:34;;;;;;;6.20;2.80;;;;;;;6.55;88.97;99161.05;102147;1273;98331;-73
2024/02/13 02:46:01;;;;;;;5.10;2.90;;;;;;;6.54;88.36;99155.22;102174;1275;107329;-73
2024/02/13 02:48:28;;;;;;;2.90;2.40;;;;;;;6.54;87.96;99159.04;102034;1270;137722;-73
2024/02/13 02:50:56;;;;;;;5.80;2.80;;;;;;;6.53;87.73;99166.67;102098;1270;110844;-72
2024/02/13 02:53:23;;;;;;;4.30;2.90;;;;;;;6.49;87.67;99169.23;102136;1272;137924;-74
2024/02/13 02:55:53;;;;;;;3.80;2.70;;;;;;;6.45;87.62;99174.35;102252;1270;97694;-72
2024/02/13 02:58:20;;;;;;;3.70;2.70;;;;;;;6.41;87.98;99177.42;102213;1273;107777;-73
2024/02/13 03:00:48;;;;;;;5.00;2.60;;;;;;;6.40;88.11;99177.29;102072;1270;138427;-73
2024/02/13 03:03:17;;;;;;;4.10;2.90;;;;;;;6.41;88.18;99185.54;102201;1270;110149;-72
2024/02/13 03:05:44;;;;;;;4.70;2.90;;;;;;;6.42;88.29;99190.66;102113;1273;138259;-72
2024/02/13 03:08:12;;;;;;;4.90;2.90;;;;;;;6.44;88.30;99186.45;102181;1270;97861;-74
2024/02/13 03:10:40;;;;;;;4.40;3.10;;;;;;;6.46;88.34;99192.10;102151;1270;108028;-73
2024/02/13 03:13:08;;;;;;;5.50;3.20;;;;;;;6.48;88.38;99192.75;102026;1270;137857;-73
2024/02/13 03:15:35;;;;;;;5.70;3.20;;;;;;;6.46;88.08;99197.83;102146;1270;110593;-72
2024/02/13 03:18:05;;;;;;;6.40;3.20;;;;;;;6.43;88.30;99198.91;102137;1270;137698;-72
2024/02/13 03:20:32;;;;;;;4.70;3.20;;;;;;;6.40;88.25;99201.44;102260;1270;97827;-72
2024/02/13 03:23:00;;;;;;;4.30;3.00;;;;;;;6.36;88.20;99200.02;102104;1269;138361;-72
2024/02/13 03:25:26;;;;;;;4.50;2.70;;;;;;;6.37;88.28;99206.89;102201;1273;97842;-72
2024/02/13 03:27:53;;;;;;;4.60;3.10;;;;;;;6.39;88.26;99204.92;102260;1270;111106;-72
2024/02/13 03:30:20;;;;;;;6.00;3.50;;;;;;;6.41;88.19;99206.23;102120;1269;137705;-73
2024/02/13 03:32:47;;;;;;;5.90;4.20;;;;;;;6.42;88.12;99210.34;102228;1269;97724;-72
2024/02/13 03:35:15;;;;;;;8.10;4.80;;;;;;;6.42;87.87;99212.42;102100;1270;137796;-72
2024/02/13 03:37:42;;;;;;;6.90;3.80;;;;;;;6.41;87.68;99214.20;102252;1270;97810;-72
2024/02/13 03:40:15;;;;;;;4.70;3.40;;;;;;;6.34;87.52;99220.96;102291;1270;111526;-72
2024/02/13 03:42:42;;;;;;;3.50;2.90;;;;;;;6.28;87.49;99221.00;102827;1269;138372;-72
2024/02/13 03:45:13;;;;;;;3.70;2.90;;;;;;;6.25;87.46;99224.36;102225;1270;97896;-72
2024/02/13 03:47:40;;;;;;;4.90;2.80;;;;;;;6.23;87.50;99229.97;102587;1271;138187;-73
2024/02/13 03:50:09;;;;;;;3.00;2.50;;;;;;;6.24;87.61;99235.79;102257;1273;97819;-73
2024/02/13 03:52:36;;;;;;;3.40;2.70;;;;;;;6.25;87.47;99235.74;102306;1273;110696;-74
2024/02/13 03:55:05;;;;;;;3.60;2.50;;;;;;;6.24;87.17;99240.79;102073;1270;137706;-73
2024/02/13 03:57:32;;;;;;;3.00;2.70;;;;;;;6.21;86.69;99241.91;102255;1270;99289;-73
2024/02/13 04:00:00;;;;;;;3.40;2.50;;;;;;;6.14;86.25;99246.30;102091;1271;137469;-73
2024/02/13 04:02:31;;;;;;;3.00;2.30;;;;;;;6.06;86.32;99254.29;102139;1273;97962;-74
2024/02/13 04:04:58;;;;;;;2.70;2.20;;;;;;;5.99;86.12;99257.58;101992;1270;138397;-73
2024/02/13 04:07:25;;;;;;;4.50;1.90;;;;;;;5.93;86.23;99262.59;102197;1273;106692;-72
2024/02/13 04:09:52;;;;;;;1.60;1.50;;;;;;;5.89;86.25;99266.30;102219;1272;98481;-74
2024/02/13 04:12:20;;;;;;;3.10;1.80;;;;;;;5.87;86.07;99266.53;102159;1272;138330;-73
2024/02/13 04:14:47;;;;;;;2.20;2.00;;;;;;;5.86;86.38;99273.80;102390;1270;97904;-74
2024/02/13 04:17:16;;;;;;;2.70;2.10;;;;;;;5.85;86.27;99273.67;102095;1272;137718;-73
2024/02/13 04:19:43;;;;;;;2.20;2.00;;;;;;;5.85;86.57;99282.63;102154;1270;107330;-72
2024/02/13 04:22:10;;;;;;;2.50;2.30;;;;;;;5.87;86.60;99289.30;102260;1270;97685;-72
2024/02/13 04:24:37;;;;;;;3.60;2.00;;;;;;;5.84;86.53;99291.99;102148;1269;138713;-74
2024/02/13 04:27:04;;;;;;;2.10;1.60;;;;;;;5.83;86.38;99290.29;102149;1270;97742;-73
2024/02/13 04:29:33;;;;;;;3.30;1.30;;;;;;;5.80;86.15;99295.91;102085;1270;138473;-73
2024/02/13 04:32:01;;;;;;;2.00;1.20;;;;;;;5.78;85.36;99294.76;102166;1273;107298;-73
2024/02/13 04:34:28;;;;;;;1.30;1.20;;;;;;;5.76;85.21;99297.04;102829;1270;98375;-73
2024/02/13 04:36:57;;;;;;;1.40;1.10;;;;;;;5.75;85.14;99300.01;102124;1270;137629;-72
2024/02/13 04:39:24;;;;;;;1.50;1.30;;;;;;;5.74;85.29;99311.06;102253;1273;97863;-73
2024/02/13 04:41:51;;;;;;;1.50;1.20;;;;;;;5.73;85.23;99310.56;102171;1270;137574;-73
2024/02/13 04:44:19;;;;;;;1.20;1.10;;;;;;;5.71;85.08;99317.35;102210;1269;108096;-73
2024/02/13 04:46:46;;;;;;;1.30;1.00;;;;;;;5.67;85.27;99314.54;102044;1270;97854;-73
2024/02/13 04:49:13;;;;;;;0.80;0.80;;;;;;;5.65;85.18;99318.21;102208;1270;139966;-73
2024/02/13 04:51:40;;;;;;;1.10;0.80;;;;;;;5.63;85.17;99324.65;102200;1269;97733;-74
2024/02/13 04:54:07;;;;;;;0.60;0.60;;;;;;;5.63;85.28;99325.86;102135;1271;138216;-73
2024/02/13 04:56:34;;;;;;;1.30;1.10;;;;;;;5.66;85.28;99331.64;102227;1269;107725;-74
2024/02/13 04:59:02;;;;;;;1.10;1.00;;;;;;;5.67;85.30;99334.02;102157;1273;138609;-74
2024/02/13 05:01:29;;;;;;;1.30;1.10;;;;;;;5.70;85.47;99334.63;102176;1272;107736;-75
2024/02/13 05:09:27;;;;;;;1.20;1.10;;;;;;;5.63;85.53;99354.81;102208;1270;107820;-75
2024/02/13 05:11:54;;;;;;;1.40;1.10;;;;;;;5.59;85.65;99355.09;102057;1270;138242;-76
2024/02/13 05:14:22;;;;;;;1.00;0.90;;;;;;;5.55;85.71;99356.77;102167;1273;107286;-75
2024/02/13 05:16:49;;;;;;;1.00;0.90;;;;;;;5.55;85.95;99363.65;102217;1270;97972;-75
2024/02/13 05:19:17;;;;;;;2.80;1.00;;;;;;;5.54;85.79;99364.02;102190;1270;110342;-75
2024/02/13 05:21:44;;;;;;;1.30;1.20;;;;;;;5.53;86.07;99362.68;102231;1273;107247;-75
2024/02/13 05:24:11;;;;;;;1.20;1.10;;;;;;;5.51;86.16;99370.13;102092;1272;138324;-76
2024/02/13 05:26:38;;;;;;;1.90;1.50;;;;;;;5.48;86.31;99368.51;102220;1270;107233;-75
2024/02/13 05:29:05;;;;;;;3.10;1.20;;;;;;;5.41;86.24;99375.21;102119;1270;139949;-75
2024/02/13 05:31:33;;;;;;;1.40;1.30;;;;;;;5.37;86.57;99387.52;102236;1270;111159;-76
2024/02/13 05:34:00;;;;;;;1.50;1.20;;;;;;;5.37;86.97;99387.90;102362;1270;106573;-75
2024/02/13 05:36:29;;;;;;;1.50;1.20;;;;;;;5.34;86.75;99388.13;102079;1272;138464;-75
2024/02/13 05:38:56;;;;;;;1.40;1.00;;;;;;;5.31;86.65;99394.42;102223;1273;107133;-76
2024/02/13 05:41:23;;;;;;;1.70;1.30;;;;;;;5.29;86.77;99393.96;102174;1269;138273;-76
2024/02/13 05:43:51;;;;;;;1.60;1.50;;;;;;;5.32;86.92;99404.91;102224;1272;110383;-75
2024/02/13 05:46:18;;;;;;;2.20;1.50;;;;;;;5.32;87.03;99401.98;102193;1270;105773;-75
2024/02/13 05:48:45;;;;;;;1.60;1.50;;;;;;;5.32;86.94;99408.70;102141;1270;137952;-74
2024/02/13 05:51:14;;;;;;;1.70;1.30;;;;;;;5.30;87.23;99418.76;102204;1273;106280;-75
2024/02/13 05:53:43;;;;;;;1.50;1.40;;;;;;;5.29;87.26;99422.90;102083;1272;138454;-75
2024/02/13 05:56:11;;;;;;;1.40;1.10;;;;;;;5.30;86.93;99428.23;102277;1270;110835;-75
2024/02/13 05:58:39;;;;;;;1.60;1.30;;;;;;;5.30;87.06;99435.64;102248;1272;106766;-75
2024/02/13 06:01:07;;;;;;;1.90;1.50;;;;;;;5.34;87.11;99441.91;102107;1273;138094;-73
2024/02/13 06:03:34;;;;;;;2.00;1.80;;;;;;;5.37;87.13;99449.60;103530;1269;106769;-69
2024/02/13 06:06:01;;;;;;;1.90;1.70;;;;;;;5.39;87.13;99453.02;102450;1269;137842;-74
2024/02/13 06:08:28;;;;;;;1.90;1.80;;;;;;;5.42;87.33;99459.16;102209;1270;111048;-74
2024/02/13 06:10:57;;;;;;;2.00;1.60;;;;;;;5.42;87.10;99464.67;102223;1270;107291;-73
2024/02/13 06:13:26;;;;;;;1.70;1.60;;;;;;;5.42;87.38;99473.27;102203;1270;97765;-73
2024/02/13 06:15:53;;;;;;;2.50;1.70;;;;;;;5.44;87.46;99482.71;102243;1270;106957;-75
2024/02/13 06:18:21;;;;;;;2.10;1.80;;;;;;;5.47;87.41;99481.63;102048;1270;138933;-75
2024/02/13 06:20:48;;;;;;;2.40;1.80;;;;;;;5.53;87.43;99489.74;102292;1270;111343;-74
2024/02/13 06:23:15;;;;;;;2.10;1.90;;;;;;;5.56;87.47;99487.61;102029;1273;138700;-74
2024/02/13 06:25:42;;;;;;;2.80;2.10;;;;;;;5.59;87.47;99489.10;102087;1270;97748;-74
2024/02/13 06:28:09;;;;;;;4.50;2.00;;;;;;;5.61;87.44;99496.13;102242;1270;107796;-73
2024/02/13 06:30:39;;;;;;;3.60;2.20;;;;;;;5.63;87.72;99503.65;102221;1269;138060;-73
2024/02/13 06:33:07;;;;;;;2.90;2.30;;;;;;;5.66;87.66;99513.08;102222;1270;109403;-73
2024/02/13 06:35:35;;;;;;;3.00;2.50;;;;;;;5.67;87.60;99516.31;101995;1273;137910;-79
2024/02/13 06:38:02;;;;;;;2.30;2.10;;;;;;;5.67;87.72;99517.52;102275;1273;97842;-79
2024/02/13 06:40:29;;;;;;;2.50;2.10;;;;;;;5.69;87.87;99525.40;102211;1273;108480;-81
2024/02/13 06:42:57;;;;;;;4.10;2.40;;;;;;;5.70;87.82;99525.73;102154;1270;138878;-79
2024/02/13 06:45:25;;;;;;;3.50;2.00;;;;;;;5.73;87.87;99533.93;102238;1270;112242;-80
2024/02/13 06:47:52;;;;;;;3.30;2.40;;;;;;;5.76;87.75;99538.55;102106;1273;139167;-80
2024/02/13 06:50:20;;;;;;;3.60;2.90;;;;;;;5.79;87.76;99534.33;102242;1273;98531;-79
2024/02/13 06:52:51;;;;;;;3.10;2.40;;;;;;;5.80;87.37;99542.75;102217;1270;108163;-80
2024/02/13 06:55:20;;;;;;;4.90;2.90;;;;;;;5.81;87.46;99546.69;102140;1270;97906;-70
2024/02/13 06:57:47;;;;;;;4.20;2.60;;;;;;;5.90;90.02;99549.95;101975;1269;110311;-66
2024/02/13 07:00:16;;;;;;;5.20;2.60;;;;;;;6.07;89.86;99552.13;101984;1270;138665;-67
2024/02/13 07:02:44;;;;;;;2.90;2.10;;;;;;;6.22;90.49;99555.55;102558;1270;97729;-79
2024/02/13 07:05:11;;;;;;;6.00;2.40;;;;;;;6.35;88.50;99559.36;102004;1270;138100;-80
2024/02/13 07:07:39;;;;;;;2.60;2.30;;;;;;;6.32;87.31;99564.95;102360;1270;97934;-80
2024/02/13 07:10:14;;;;;;;4.50;2.90;;;;;;;6.30;87.00;99570.37;102261;1272;110792;-80
2024/02/13 07:12:43;;;;;;;4.20;2.70;;;;;;;6.27;86.89;99574.39;101864;1270;137916;-80
2024/02/13 07:15:12;;;;;;;6.00;2.90;;;;;;;6.22;86.61;99579.35;102267;1270;97459;-80
2024/02/13 07:17:40;;;;;;;3.70;2.70;;;;;;;6.18;86.59;99580.33;103543;1269;137751;-81
2024/02/13 07:20:23;;;;;;;4.10;2.80;;;;;;;6.14;86.63;99583.20;103051;1273;96434;-82
2024/02/13 07:22:50;;;;;;;2.80;2.50;;;;;;;6.13;86.78;99591.34;102260;1270;111403;-83
2024/02/13 07:25:18;;;;;;;3.40;2.50;;;;;;;6.11;86.33;99588.44;102096;1272;138213;-82
2024/02/13 07:27:46;;;;;;;3.30;2.20;;;;;;;6.12;86.54;99596.72;102244;1270;99328;-82
2024/02/13 07:30:15;;;;;;;3.70;2.70;;;;;;;6.16;86.79;99600.06;102185;1272;138557;-81
2024/02/13 07:32:42;;;;;;;5.30;2.50;;;;;;;6.21;86.83;99602.86;102293;1270;98454;-82
2024/02/13 07:35:10;;;;;;;5.80;2.70;;;;;;;6.22;86.64;99600.59;102232;1271;137916;-83
2024/02/13 07:37:37;;;;;;;4.40;2.90;;;;;;;6.24;86.51;99609.02;102209;1270;108088;-82
2024/02/13 07:40:05;;;;;;;5.10;3.00;;;;;;;6.22;86.55;99614.39;102288;1268;98400;-82
2024/02/13 07:42:32;;;;;;;3.20;2.40;;;;;;;6.23;86.66;99619.73;102175;1270;139182;-82
2024/02/13 07:45:00;;;;;;;6.10;2.70;;;;;;;6.24;86.50;99619.52;102177;1269;97999;-82
2024/02/13 07:47:27;;;;;;;3.80;2.70;;;;;;;6.27;86.45;99620.31;102252;1269;139688;-82
2024/02/13 07:49:55;;;;;;;4.70;2.90;;;;;;;6.31;86.60;99616.08;102288;1273;106726;-83
2024/02/13 07:52:22;;;;;;;3.20;2.80;;;;;;;6.35;86.21;99616.52;102291;1270;97955;-81
2024/02/13 07:54:50;;;;;;;5.60;3.30;;;;;;;6.37;86.38;99619.02;101895;1275;137558;-82
2024/02/13 07:57:18;;;;;;;6.20;3.80;;;;;;;6.42;86.52;99624.27;102153;1275;98228;-81
2024/02/13 07:59:45;;;;;;;5.90;3.60;;;;;;;6.46;86.39;99623.29;102141;1273;137767;-81
2024/02/13 08:02:13;;;;;;;5.90;3.50;;;;;;;6.47;86.31;99627.09;102124;1274;108069;-83
2024/02/13 08:04:40;;;;;;;6.40;3.70;;;;;;;6.48;86.33;99631.71;102030;1270;98444;-82
2024/02/13 08:07:08;;;;;;;5.90;3.80;;;;;;;6.50;86.30;99635.29;101987;1270;138565;-83
2024/02/13 08:09:36;;;;;;;5.70;3.10;;;;;;;6.55;86.55;99639.81;102184;1270;97849;-86
2024/02/13 08:12:06;;;;;;;8.50;3.80;;;;;;;6.65;86.74;99645.79;102083;1270;137915;-81
2024/02/13 08:14:35;;;;;;;6.40;4.30;;;;;;;6.74;86.29;99638.30;102093;1270;107430;-81
2024/02/13 08:17:06;;;;;;;6.50;4.60;;;;;;;6.78;86.25;99641.64;102062;1270;137949;-81
2024/02/13 08:19:34;;;;;;;8.10;4.00;;;;;;;6.88;86.45;99647.27;102158;1275;107671;-81
2024/02/13 08:22:01;;;;;;;9.00;5.30;;;;;;;6.94;86.21;99649.34;102170;1270;97748;-82
2024/02/13 08:24:28;;;;;;;7.40;4.90;;;;;;;6.97;86.23;99648.19;102094;1270;136526;-73
2024/02/13 08:26:56;;;;;;;7.50;5.00;;;;;;;7.02;86.02;99648.11;102290;1275;108224;-82
2024/02/13 08:29:23;;;;;;;8.90;5.00;;;;;;;7.05;85.83;99650.95;102108;1270;138623;-82
2024/02/13 08:31:50;;;;;;;8.00;4.50;;;;;;;7.10;85.90;99648.73;102180;1272;107373;-83
2024/02/13 08:34:18;;;;;;;9.50;5.70;;;;;;;7.20;86.02;99651.40;102205;1270;97869;-83
2024/02/13 08:36:46;;;;;;;9.80;6.00;;;;;;;7.30;85.88;99655.94;102122;1270;137935;-83
2024/02/13 08:39:13;;;;;;;10.30;6.30;;;;;;;7.37;85.47;99656.47;102167;1273;107692;-83
2024/02/13 08:41:40;;;;;;;10.30;6.90;;;;;;;7.39;85.28;99659.16;102085;1275;139230;-82
2024/02/13 08:44:09;;;;;;;10.40;7.60;;;;;;;7.43;85.23;99663.17;102177;1273;107920;-83
2024/02/13 08:46:36;;;;;;;12.10;7.70;;;;;;;7.47;85.12;99663.77;102155;1273;97813;-83
2024/02/13 08:49:04;;;;;;;14.10;7.80;;;;;;;7.49;84.92;99670.09;102019;1274;138077;-82
2024/02/13 08:51:32;;;;;;;10.70;6.50;;;;;;;7.50;84.74;99670.60;102055;1270;107832;-82
2024/02/13 08:54:04;;;;;;;8.80;6.00;;;;;;;7.50;84.47;99668.50;102151;1269;138552;-81
2024/02/13 08:56:32;;;;;;;11.00;6.90;;;;;;;7.47;84.26;99675.54;102096;1273;107178;-81
2024/02/13 08:59:01;;;;;;;11.20;6.90;;;;;;;7.46;84.16;99674.01;101974;1272;139288;-74
2024/02/13 09:01:29;;;;;;;10.80;7.00;;;;;;;7.53;84.44;99678.12;102409;1270;110227;-83
2024/02/13 09:03:57;;;;;;;10.90;6.70;;;;;;;7.61;84.30;99676.70;102260;1270;109193;-78
2024/02/13 09:06:24;;;;;;;9.20;6.40;;;;;;;7.61;83.49;99679.99;102091;1270;137867;-82
2024/02/13 09:08:51;;;;;;;10.80;6.30;;;;;;;7.59;83.06;99684.02;102145;1270;108098;-80
2024/02/13 09:11:18;;;;;;;10.80;6.70;;;;;;;7.55;83.19;99684.64;102177;1270;138185;-81
2024/02/13 09:13:46;;;;;;;11.50;7.20;;;;;;;7.52;83.33;99689.38;102251;1273;111631;-81
2024/02/13 09:16:14;;;;;;;10.80;6.50;;;;;;;7.51;83.56;99689.77;102211;1270;107973;-82
2024/02/13 09:18:41;;;;;;;8.40;5.30;;;;;;;7.50;83.27;99692.20;102128;1270;138839;-84
2024/02/13 09:21:09;;;;;;;8.00;5.60;;;;;;;7.49;82.98;99701.77;102260;1270;107030;-82
2024/02/13 09:23:37;;;;;;;8.50;5.10;;;;;;;7.45;82.80;99704.80;102162;1269;138561;-83
2024/02/13 09:26:04;;;;;;;9.60;5.80;;;;;;;7.47;82.86;99709.09;102301;1269;109878;-83
2024/02/13 09:28:32;;;;;;;9.00;5.40;;;;;;;7.49;82.90;99709.02;102290;1273;106562;-83
2024/02/13 09:30:59;;;;;;;10.30;6.00;;;;;;;7.52;82.31;99708.06;102163;1271;139219;-83
2024/02/13 09:33:27;;;;;;;7.10;5.00;;;;;;;7.50;81.96;99706.05;102230;1270;107242;-83
2024/02/13 09:35:54;;;;;;;11.00;6.60;;;;;;;7.47;81.97;99718.09;102087;1272;138408;-83
2024/02/13 09:38:22;;;;;;;9.00;5.30;;;;;;;7.43;82.12;99722.17;102278;1270;110526;-83
2024/02/13 09:40:50;;;;;;;8.40;5.70;;;;;;;7.41;82.29;99720.70;101959;1273;107673;-82
2024/02/13 09:43:18;;;;;;;10.20;5.60;;;;;;;7.39;82.39;99730.42;102123;1269;138324;-82
2024/02/13 09:45:46;;;;;;;8.00;5.00;;;;;;;7.40;82.46;99729.52;102391;1269;111079;-84
2024/02/13 09:48:23;;;;;;;8.40;5.10;;;;;;;7.43;82.34;99729.45;101964;1269;139041;-84
2024/02/13 09:50:53;;;;;;;7.00;5.20;;;;;;;7.46;82.16;99728.85;102126;1273;110559;-80
2024/02/13 09:53:25;;;;;;;8.80;5.70;;;;;;;7.49;82.21;99736.01;102103;1273;138362;-82
2024/02/13 09:55:53;;;;;;;10.50;5.70;;;;;;;7.56;82.36;99742.58;102307;1270;97834;-82
2024/02/13 09:58:21;;;;;;;10.80;5.90;;;;;;;7.59;81.60;99746.82;102263;1270;108181;-83
2024/02/13 10:00:48;;;;;;;10.60;6.40;;;;;;;7.54;81.68;99742.61;102203;1273;138217;-83
2024/02/13 10:03:16;;;;;;;10.60;6.30;;;;;;;7.62;81.47;99749.85;102216;1270;110423;-81
2024/02/13 10:05:43;;;;;;;12.10;7.00;;;;;;;7.59;80.94;99753.73;101968;1270;138277;-81
2024/02/13 10:08:12;;;;;;;9.10;5.80;;;;;;;7.55;81.13;99755.76;102178;1273;98086;-82
2024/02/13 10:10:39;;;;;;;8.20;5.30;;;;;;;7.55;81.30;99757.12;102266;1273;106825;-82
2024/02/13 10:13:06;;;;;;;8.90;5.40;;;;;;;7.55;80.97;99765.08;102133;1273;138529;-82
2024/02/13 10:15:42;;;;;;;8.70;5.10;;;;;;;7.59;80.82;99762.05;102307;1270;110484;-82
2024/02/13 10:18:12;;;;;;;8.50;5.20;;;;;;;7.63;80.29;99763.98;102107;1270;138244;-74
2024/02/13 10:20:40;;;;;;;9.10;6.10;;;;;;;7.66;80.33;99766.00;102321;1273;97874;-79
2024/02/13 10:23:09;;;;;;;10.80;6.40;;;;;;;7.71;80.52;99770.17;102179;1270;136574;-88
2024/02/13 10:25:37;;;;;;;12.40;6.40;;;;;;;7.73;80.01;99763.39;102293;1270;97778;-82
2024/02/13 10:28:06;;;;;;;8.10;5.60;;;;;;;7.71;79.93;99769.85;102261;1270;111371;-84
2024/02/13 10:30:33;;;;;;;8.90;6.10;;;;;;;7.70;79.72;99778.50;102189;1269;137705;-84
2024/02/13 10:33:06;;;;;;;9.60;6.60;;;;;;;7.71;79.87;99777.61;102322;1270;97832;-84
2024/02/13 10:35:33;;;;;;;10.40;6.30;;;;;;;7.72;79.78;99771.73;102153;1273;137525;-84
2024/02/13 10:38:02;;;;;;;11.50;6.60;;;;;;;7.73;79.68;99778.10;102243;1270;97903;-85
2024/02/13 10:40:30;;;;;;;10.40;6.10;;;;;;;7.71;78.51;99770.17;102233;1270;111961;-85
2024/02/13 10:42:58;;;;;;;10.00;5.90;;;;;;;7.63;78.60;99781.46;101375;1273;1003748;-83
2024/02/13 10:45:28;;;;;;;8.80;5.30;;;;;;;7.62;79.28;99789.64;102385;1270;97902;-84
2024/02/13 10:48:03;;;;;;;9.20;5.70;;;;;;;7.61;79.05;99791.75;102260;1270;138218;-85
2024/02/13 10:50:31;;;;;;;11.30;5.50;;;;;;;7.58;79.29;99798.91;102317;1271;97687;-82
2024/02/13 10:53:03;;;;;;;8.50;5.90;;;;;;;7.59;79.27;99801.67;102429;1270;111180;-81
2024/02/13 10:55:32;;;;;;;9.10;5.00;;;;;;;7.59;79.03;99800.98;102392;1273;107203;-84
2024/02/13 10:58:00;;;;;;;8.00;5.00;;;;;;;7.60;79.03;99802.00;102513;1272;97873;-82
2024/02/13 11:00:28;;;;;;;9.60;6.00;;;;;;;7.60;78.82;99799.73;102264;1269;137561;-84
2024/02/13 11:02:56;;;;;;;8.10;5.60;;;;;;;7.64;79.01;99805.34;102379;1273;97812;-83
2024/02/13 11:05:25;;;;;;;8.50;5.60;;;;;;;7.71;79.26;99809.79;102438;1272;137770;-83
2024/02/13 11:07:53;;;;;;;12.20;6.00;;;;;;;7.89;79.42;99812.23;102475;1270;106909;-84
2024/02/13 11:10:20;;;;;;;11.00;6.40;;;;;;;8.10;79.34;99809.05;102820;1272;96978;-84
2024/02/13 11:12:54;;;;;;;10.10;6.10;;;;;;;8.27;78.45;99808.91;102493;1270;137730;-84
2024/02/13 11:15:21;;;;;;;9.00;6.00;;;;;;;8.31;77.75;99809.47;102387;1270;97882;-84
2024/02/13 11:17:54;;;;;;;9.80;6.30;;;;;;;8.31;77.83;99810.70;102212;1271;137615;-83
2024/02/13 11:20:24;;;;;;;9.20;6.40;;;;;;;8.30;77.19;99810.02;102722;1270;107118;-87
2024/02/13 11:22:56;;;;;;;11.20;6.80;;;;;;;8.26;77.15;99817.93;103012;1270;97820;-83
2024/02/13 11:25:29;;;;;;;9.20;5.40;;;;;;;8.23;77.33;99820.25;102301;1270;108264;-84
2024/02/13 11:28:03;;;;;;;11.80;5.70;;;;;;;8.24;77.35;99821.10;102405;1268;98190;-85
2024/02/13 11:30:30;;;;;;;8.40;5.10;;;;;;;8.28;77.17;99820.48;102881;1269;139274;-84
2024/02/13 11:33:01;;;;;;;8.50;5.40;;;;;;;8.32;76.88;99822.27;102355;1272;107663;-83
2024/02/13 11:35:33;;;;;;;9.00;5.30;;;;;;;8.37;76.43;99819.52;102253;1270;137935;-84